Time;durP1;ratioP1;P1;durP2;ratioP2;P2;SDS_P1;SDS_P2;PMS_P1;PMS_P2;Temp;Humidity;BMP_temperature;BMP_pressure;BME280_temperature;BME280_humidity;BME280_pressure;Samples;Min_cycle;Max_cycle;Signal;HPM_P1;HPM_P2
2023/06/08 00:00:39;;;;;;;10.32;6.13;;;;;;;19.51;49.05;101472.03;5064857;28;20728;-58
2023/06/08 00:03:06;;;;;;;8.80;6.15;;;;;;;19.45;48.57;101472.47;5063295;28;20135;-58
2023/06/08 00:05:43;;;;;;;7.97;5.15;;;;;;;19.44;48.71;101476.13;5068184;28;20098;-58
2023/06/08 00:08:10;;;;;;;7.85;5.50;;;;;;;19.41;48.39;101471.00;5070811;28;20153;-58
2023/06/08 00:10:37;;;;;;;8.23;5.15;;;;;;;19.33;48.27;101473.38;5066814;28;20052;-58
2023/06/08 00:13:04;;;;;;;16.45;5.18;;;;;;;19.26;48.40;101476.47;5064794;28;20128;-58
2023/06/08 00:15:32;;;;;;;10.98;5.13;;;;;;;19.20;48.76;101474.22;5058923;28;20102;-58
2023/06/08 00:18:02;;;;;;;10.30;5.85;;;;;;;19.14;48.83;101468.44;5054674;28;20075;-58
2023/06/08 00:20:29;;;;;;;7.22;5.13;;;;;;;19.06;48.80;101464.50;5052750;28;20059;-58
2023/06/08 00:22:56;;;;;;;7.47;4.93;;;;;;;18.96;48.91;101471.47;5065014;28;20037;-58
2023/06/08 00:25:23;;;;;;;11.02;5.68;;;;;;;18.93;48.99;101469.00;5082978;28;20049;-58
2023/06/08 00:27:49;;;;;;;11.32;5.03;;;;;;;18.88;49.31;101463.97;5067492;28;20365;-58
2023/06/08 00:30:16;;;;;;;8.73;5.38;;;;;;;18.81;49.36;101459.09;5063695;28;20135;-58
2023/06/08 00:32:43;;;;;;;14.35;5.82;;;;;;;18.77;49.51;101458.44;5080861;28;20127;-58
2023/06/08 00:35:10;;;;;;;8.15;5.55;;;;;;;18.74;49.67;101465.84;5067662;28;20057;-58
2023/06/08 00:37:36;;;;;;;10.18;4.60;;;;;;;18.69;49.67;101464.31;5069127;28;20049;-58
2023/06/08 00:40:06;;;;;;;16.48;6.13;;;;;;;18.62;50.53;101462.16;5071697;28;20044;-58
2023/06/08 00:42:33;;;;;;;11.13;5.80;;;;;;;18.52;51.78;101457.47;5066253;28;20041;-57
2023/06/08 00:45:00;;;;;;;8.38;5.50;;;;;;;18.45;52.98;101461.50;5065323;28;20051;-57
2023/06/08 00:47:26;;;;;;;8.27;6.07;;;;;;;18.40;53.46;101468.13;5073292;28;20051;-57
2023/06/08 00:49:53;;;;;;;12.70;5.68;;;;;;;18.39;54.15;101467.28;5068408;28;20048;-57
2023/06/08 00:52:21;;;;;;;11.30;4.93;;;;;;;18.35;54.55;101466.59;5060591;28;20053;-57
2023/06/08 00:54:48;;;;;;;11.05;5.38;;;;;;;18.34;54.91;101464.03;5076074;28;20052;-58
2023/06/08 00:57:18;;;;;;;8.10;5.10;;;;;;;18.30;54.68;101462.53;5073499;28;20052;-57
2023/06/08 00:59:49;;;;;;;12.43;5.95;;;;;;;18.27;54.98;101468.09;5070572;28;20040;-57
2023/06/08 01:02:17;;;;;;;9.70;6.32;;;;;;;18.25;55.35;101467.34;5070924;28;20040;-57
2023/06/08 01:04:43;;;;;;;12.52;6.13;;;;;;;18.25;55.68;101460.16;5072512;28;20044;-57
2023/06/08 01:07:40;;;;;;;9.98;6.38;;;;;;;18.29;55.88;101460.81;5073049;28;20080;-57
2023/06/08 01:10:17;;;;;;;10.57;5.97;;;;;;;18.28;55.98;101456.44;5066233;28;20044;-58
2023/06/08 01:13:18;;;;;;;9.88;5.90;;;;;;;18.17;56.54;101463.34;5061894;28;20364;-57
2023/06/08 01:15:50;;;;;;;6.78;5.53;;;;;;;18.13;56.48;101461.00;5070607;28;20055;-57
2023/06/08 01:18:22;;;;;;;8.55;6.22;;;;;;;18.09;56.71;101465.69;5071417;28;20075;-58
2023/06/08 01:21:14;;;;;;;8.43;5.45;;;;;;;18.05;56.10;101461.50;5066055;28;20135;-57
2023/06/08 01:23:55;;;;;;;8.63;5.65;;;;;;;17.98;55.95;101457.50;5072749;28;20120;-57
2023/06/08 01:26:22;;;;;;;11.95;5.32;;;;;;;17.92;55.49;101455.25;5064885;28;20067;-58
2023/06/08 01:28:50;;;;;;;13.38;6.20;;;;;;;17.85;55.41;101456.56;5067918;28;20040;-58
2023/06/08 01:31:17;;;;;;;12.20;6.75;;;;;;;17.83;55.44;101455.81;5061581;28;20057;-58
2023/06/08 01:33:44;;;;;;;8.77;6.22;;;;;;;17.77;55.47;101449.06;5062091;28;20052;-57
2023/06/08 01:36:16;;;;;;;8.60;4.97;;;;;;;17.73;55.70;101448.38;5061166;28;20052;-58
2023/06/08 01:38:53;;;;;;;6.93;5.20;;;;;;;17.67;55.79;101446.13;5061798;28;20052;-58
2023/06/08 01:41:32;;;;;;;10.82;5.63;;;;;;;17.59;56.08;101445.75;5061158;28;20091;-58
2023/06/08 01:44:00;;;;;;;7.65;5.20;;;;;;;17.54;56.25;101437.16;5060746;28;20047;-58
2023/06/08 01:46:29;;;;;;;13.23;6.43;;;;;;;17.47;56.62;101442.03;5064027;28;20058;-58
2023/06/08 01:48:58;;;;;;;7.03;4.97;;;;;;;17.39;56.52;101439.00;5062760;28;20068;-58
2023/06/08 01:51:26;;;;;;;12.80;5.53;;;;;;;17.35;56.73;101445.50;5062423;28;20076;-58
2023/06/08 01:54:08;;;;;;;12.50;5.38;;;;;;;17.30;56.62;101440.44;5063715;28;20059;-58
2023/06/08 01:56:35;;;;;;;12.98;5.57;;;;;;;17.26;56.90;101444.25;5059396;28;20592;-58
2023/06/08 01:59:03;;;;;;;10.65;6.00;;;;;;;17.20;57.00;101439.31;5063826;28;20135;-57
2023/06/08 02:01:29;;;;;;;9.05;6.28;;;;;;;17.14;57.30;101434.34;5063588;28;20046;-58
2023/06/08 02:03:56;;;;;;;6.90;4.72;;;;;;;17.07;57.46;101428.53;5064452;28;20102;-58
2023/06/08 02:06:23;;;;;;;7.35;5.22;;;;;;;17.03;57.68;101433.22;5062923;28;20507;-58
2023/06/08 02:08:49;;;;;;;10.02;5.85;;;;;;;17.01;57.66;101432.44;5061400;28;20366;-58
2023/06/08 02:11:16;;;;;;;8.30;5.20;;;;;;;16.99;57.51;101439.69;5063364;28;20102;-58
2023/06/08 02:13:44;;;;;;;14.35;5.90;;;;;;;16.99;57.87;101437.00;5064738;28;20052;-58
2023/06/08 02:16:11;;;;;;;13.20;6.28;;;;;;;17.00;57.81;101438.75;5062840;28;20064;-58
2023/06/08 02:18:40;;;;;;;11.27;5.50;;;;;;;16.99;57.82;101437.00;5063441;28;20520;-58
2023/06/08 02:21:08;;;;;;;11.52;5.65;;;;;;;17.01;57.58;101437.75;5064757;28;20051;-58
2023/06/08 02:23:35;;;;;;;9.88;5.25;;;;;;;17.04;57.62;101440.25;5063346;28;20064;-58
2023/06/08 02:26:03;;;;;;;11.27;6.35;;;;;;;17.02;57.67;101436.81;5063015;28;20059;-58
2023/06/08 02:28:29;;;;;;;13.43;5.55;;;;;;;17.05;57.75;101436.63;5062955;28;20139;-59
2023/06/08 02:30:56;;;;;;;11.20;5.40;;;;;;;17.08;57.64;101440.06;5065504;28;20440;-58
2023/06/08 02:33:23;;;;;;;12.13;5.50;;;;;;;17.09;57.45;101436.44;5062956;28;20044;-59
2023/06/08 02:35:50;;;;;;;16.83;6.57;;;;;;;17.11;57.39;101438.06;5062959;28;20074;-58
2023/06/08 02:38:16;;;;;;;9.40;5.32;;;;;;;17.12;57.33;101436.25;5064325;28;20044;-59
2023/06/08 02:40:43;;;;;;;9.77;6.05;;;;;;;17.14;57.15;101429.00;5062262;28;20139;-58
2023/06/08 02:43:10;;;;;;;12.60;5.05;;;;;;;17.17;57.21;101429.66;5061850;28;20044;-59
2023/06/08 02:45:37;;;;;;;9.82;5.70;;;;;;;17.21;56.80;101433.00;5062558;28;20041;-58
2023/06/08 02:48:05;;;;;;;12.40;5.38;;;;;;;17.22;56.62;101432.06;5066396;28;20075;-59
2023/06/08 02:50:31;;;;;;;12.30;5.63;;;;;;;17.23;56.36;101431.97;5063771;28;20048;-58
2023/06/08 02:52:58;;;;;;;14.63;5.40;;;;;;;17.21;56.11;101433.88;5063939;28;20135;-58
2023/06/08 02:55:24;;;;;;;13.77;6.25;;;;;;;17.16;55.70;101427.09;5063075;28;20048;-58
2023/06/08 02:57:52;;;;;;;7.80;5.03;;;;;;;17.19;55.64;101429.56;5063869;28;20440;-58
2023/06/08 03:00:20;;;;;;;9.80;6.18;;;;;;;17.13;55.56;101432.63;5067709;28;20048;-58
2023/06/08 03:02:46;;;;;;;16.50;6.90;;;;;;;17.10;55.61;101427.47;5067241;28;20480;-58
2023/06/08 03:05:13;;;;;;;8.43;5.57;;;;;;;17.04;55.20;101428.72;5065046;28;20079;-58
2023/06/08 03:07:40;;;;;;;13.82;5.70;;;;;;;16.99;54.79;101429.00;5083878;28;20369;-57
2023/06/08 03:10:08;;;;;;;10.02;5.68;;;;;;;16.97;54.97;101427.41;5066339;28;20132;-58
2023/06/08 03:12:34;;;;;;;11.32;5.00;;;;;;;16.92;54.85;101425.00;5066812;28;20052;-58
2023/06/08 03:15:01;;;;;;;9.70;5.75;;;;;;;16.90;54.98;101421.53;5067490;28;20121;-58
2023/06/08 03:17:28;;;;;;;9.18;5.32;;;;;;;16.82;55.04;101424.69;5061672;28;20140;-58
2023/06/08 03:19:55;;;;;;;10.77;5.47;;;;;;;16.82;55.11;101429.13;5062415;28;20064;-59
2023/06/08 03:22:24;;;;;;;8.73;5.07;;;;;;;16.78;55.27;101422.28;5045522;28;20471;-59
2023/06/08 03:24:50;;;;;;;8.82;5.45;;;;;;;16.73;55.49;101429.72;5066782;28;20064;-58
2023/06/08 03:27:17;;;;;;;9.50;5.05;;;;;;;16.73;55.49;101419.03;5064942;28;20083;-57
2023/06/08 03:29:44;;;;;;;16.00;6.10;;;;;;;16.72;55.77;101430.66;5066085;28;20056;-58
2023/06/08 03:32:10;;;;;;;8.32;5.80;;;;;;;16.72;55.89;101433.31;5068402;28;20167;-59
2023/06/08 03:34:38;;;;;;;9.05;5.32;;;;;;;16.66;56.10;101440.75;5065239;28;25208;-58
2023/06/08 03:37:04;;;;;;;11.27;6.10;;;;;;;16.61;56.38;101432.19;5067347;28;20110;-58
2023/06/08 03:39:31;;;;;;;11.45;4.97;;;;;;;16.65;56.15;101428.34;5067823;28;20432;-58
2023/06/08 03:41:57;;;;;;;12.70;6.38;;;;;;;16.62;56.30;101428.53;5064267;28;20166;-59
2023/06/08 03:44:24;;;;;;;10.63;5.40;;;;;;;16.64;56.33;101426.66;5067089;28;20586;-58
2023/06/08 03:46:51;;;;;;;20.40;6.72;;;;;;;16.66;56.01;101430.09;5061405;28;20187;-58
2023/06/08 03:49:17;;;;;;;11.38;4.95;;;;;;;16.66;55.75;101430.09;5065879;28;20235;-58
2023/06/08 03:51:44;;;;;;;10.43;5.72;;;;;;;16.65;55.99;101433.69;5066790;28;20045;-58
2023/06/08 03:54:10;;;;;;;8.82;6.05;;;;;;;16.65;56.07;101428.34;5064639;28;20098;-58
2023/06/08 03:56:37;;;;;;;12.07;5.82;;;;;;;16.65;55.74;101438.19;5066379;28;20056;-58
2023/06/08 03:59:06;;;;;;;15.75;5.85;;;;;;;16.67;56.29;101437.16;5066063;28;20072;-58
2023/06/08 04:01:35;;;;;;;10.40;5.45;;;;;;;16.72;55.90;101438.66;5065425;28;20484;-58
2023/06/08 04:04:03;;;;;;;11.32;5.43;;;;;;;16.74;55.97;101431.41;5064035;28;20353;-58
2023/06/08 04:06:33;;;;;;;13.40;5.78;;;;;;;16.74;56.14;101431.41;5061601;28;20049;-58
2023/06/08 04:09:00;;;;;;;10.20;5.90;;;;;;;16.79;56.16;101434.69;5063897;28;20329;-59
2023/06/08 04:11:27;;;;;;;9.93;5.85;;;;;;;16.85;55.88;101434.31;5057954;28;20395;-58
2023/06/08 04:13:54;;;;;;;6.97;5.00;;;;;;;16.91;55.86;101433.97;5063047;28;20079;-59
2023/06/08 04:16:20;;;;;;;14.18;5.93;;;;;;;16.98;55.90;101435.28;5061360;28;20049;-59
2023/06/08 04:18:47;;;;;;;11.38;6.32;;;;;;;17.04;55.55;101440.25;5061684;28;20103;-59
2023/06/08 04:21:14;;;;;;;9.30;5.93;;;;;;;17.12;55.38;101441.59;5063303;28;20361;-60
2023/06/08 04:23:41;;;;;;;12.40;6.60;;;;;;;17.13;55.34;101443.31;5062305;28;20504;-58
2023/06/08 04:26:08;;;;;;;12.07;6.03;;;;;;;17.20;55.02;101439.31;5062080;28;20184;-60
2023/06/08 04:28:35;;;;;;;14.63;6.55;;;;;;;17.25;55.22;101442.56;5062955;28;20055;-58
2023/06/08 04:31:04;;;;;;;9.13;5.53;;;;;;;17.36;54.02;101442.72;5061240;28;20661;-59
2023/06/08 04:33:31;;;;;;;11.05;5.47;;;;;;;17.44;54.57;101436.88;5063922;28;20445;-57
2023/06/08 04:35:58;;;;;;;12.20;5.45;;;;;;;17.52;54.40;101439.91;5060952;28;20995;-59
2023/06/08 04:38:25;;;;;;;26.25;6.90;;;;;;;17.61;54.70;101438.50;5060387;28;20059;-57
2023/06/08 04:40:53;;;;;;;9.52;6.10;;;;;;;17.66;54.28;101441.72;5061807;28;20045;-58
2023/06/08 04:43:21;;;;;;;11.27;5.97;;;;;;;17.82;53.54;101435.34;5061645;28;20102;-58
2023/06/08 04:46:00;;;;;;;12.52;6.43;;;;;;;17.82;53.30;101440.72;5062665;28;20102;-57
2023/06/08 04:48:28;;;;;;;7.80;5.65;;;;;;;17.85;52.85;101432.50;5062638;28;20056;-58
2023/06/08 04:51:03;;;;;;;12.23;6.10;;;;;;;17.88;52.57;101440.34;5062335;28;20048;-58
2023/06/08 04:53:34;;;;;;;13.95;6.20;;;;;;;17.86;52.84;101436.88;5059877;28;20389;-58
2023/06/08 04:56:02;;;;;;;12.13;5.40;;;;;;;17.92;52.67;101432.03;5062493;28;20044;-58
2023/06/08 04:58:29;;;;;;;8.20;5.70;;;;;;;17.97;52.35;101431.72;5062070;28;20416;-58
2023/06/08 05:00:56;;;;;;;7.82;5.15;;;;;;;17.99;52.35;101443.19;5063075;28;20062;-58
2023/06/08 05:03:24;;;;;;;9.18;5.53;;;;;;;17.86;52.58;101436.88;5063472;28;20041;-57
2023/06/08 05:05:51;;;;;;;8.07;5.10;;;;;;;17.88;52.25;101432.31;5059060;28;20041;-58
2023/06/08 05:08:18;;;;;;;9.43;4.57;;;;;;;17.81;52.68;101434.50;5058966;28;20048;-57
2023/06/08 05:10:44;;;;;;;14.20;6.15;;;;;;;17.82;52.60;101438.03;5064067;28;20070;-59
2023/06/08 05:13:11;;;;;;;19.13;5.80;;;;;;;17.78;52.25;101440.94;5063013;28;20151;-57
2023/06/08 05:15:37;;;;;;;16.85;6.40;;;;;;;17.70;52.35;101443.22;5057244;28;20055;-57
2023/06/08 05:18:04;;;;;;;13.05;6.10;;;;;;;17.79;51.95;101437.28;5063061;28;20047;-58
2023/06/08 05:20:31;;;;;;;9.43;6.00;;;;;;;17.85;51.94;101432.50;5064665;28;20419;-57
2023/06/08 05:22:58;;;;;;;13.70;6.32;;;;;;;17.87;51.91;101428.81;5061574;28;20044;-59
2023/06/08 05:25:26;;;;;;;10.95;5.18;;;;;;;17.94;51.81;101431.94;5061757;28;20063;-58
2023/06/08 05:27:53;;;;;;;8.80;5.57;;;;;;;18.01;51.27;101424.34;5083353;28;20109;-58
2023/06/08 05:30:19;;;;;;;11.88;5.38;;;;;;;17.84;50.94;101434.31;5066689;28;20530;-58
2023/06/08 05:32:46;;;;;;;16.45;5.47;;;;;;;17.84;51.57;101422.78;5062466;28;20135;-58
2023/06/08 05:35:13;;;;;;;14.68;5.45;;;;;;;17.94;51.60;101423.91;5060885;28;20076;-57
2023/06/08 05:37:39;;;;;;;14.98;6.47;;;;;;;17.97;51.02;101434.41;5061970;28;20044;-58
2023/06/08 05:40:06;;;;;;;10.43;6.47;;;;;;;17.93;51.02;101422.19;5065057;28;20060;-59
2023/06/08 05:42:33;;;;;;;10.73;5.53;;;;;;;17.97;51.36;101429.06;5062291;28;20040;-57
2023/06/08 05:45:00;;;;;;;9.52;5.63;;;;;;;17.96;50.84;101427.31;5061542;28;20075;-58
2023/06/08 05:47:26;;;;;;;14.35;7.38;;;;;;;18.06;51.14;101424.91;5056617;28;20615;-59
2023/06/08 05:49:58;;;;;;;9.98;5.45;;;;;;;18.14;50.45;101426.13;5064593;28;20040;-58
2023/06/08 05:52:25;;;;;;;8.15;5.22;;;;;;;18.22;50.65;101427.41;5062327;28;20512;-58
2023/06/08 05:54:51;;;;;;;14.35;6.72;;;;;;;18.15;50.26;101421.63;5076231;28;20402;-58
2023/06/08 05:57:19;;;;;;;12.98;5.60;;;;;;;18.15;51.00;101411.78;5064063;28;20584;-58
2023/06/08 05:59:46;;;;;;;14.00;6.07;;;;;;;18.25;50.41;101409.31;5062470;28;20136;-58
2023/06/08 06:02:13;;;;;;;9.45;5.93;;;;;;;18.31;49.68;101418.78;5063191;28;20140;-57
2023/06/08 06:04:40;;;;;;;12.65;5.60;;;;;;;18.24;49.13;101420.13;5058489;28;20049;-58
2023/06/08 06:07:07;;;;;;;9.07;5.38;;;;;;;18.21;49.85;101420.34;5066859;28;20044;-58
2023/06/08 06:09:34;;;;;;;9.77;5.57;;;;;;;18.22;49.93;101417.56;5065057;28;20045;-58
2023/06/08 06:12:02;;;;;;;19.33;6.57;;;;;;;18.26;50.29;101418.19;5061799;28;20047;-57
2023/06/08 06:14:40;;;;;;;16.30;6.05;;;;;;;18.17;50.67;101425.88;5062189;28;20045;-58
2023/06/08 06:17:08;;;;;;;16.90;7.43;;;;;;;18.23;50.84;101429.13;5055120;28;20420;-58
2023/06/08 06:19:39;;;;;;;11.68;5.57;;;;;;;18.37;50.58;101426.38;5066871;28;20049;-58
2023/06/08 06:22:08;;;;;;;14.40;6.10;;;;;;;18.48;50.80;101428.31;5047348;28;20366;-57
2023/06/08 06:24:36;;;;;;;11.70;6.28;;;;;;;18.67;50.55;101431.44;5085121;28;20041;-57
2023/06/08 06:27:04;;;;;;;17.52;5.75;;;;;;;18.72;50.52;101425.78;5065270;28;20063;-58
2023/06/08 06:29:31;;;;;;;10.80;5.18;;;;;;;19.00;49.65;101429.25;5068313;28;20052;-58
2023/06/08 06:31:58;;;;;;;12.70;6.65;;;;;;;19.23;48.74;101431.13;5065434;28;20088;-58
2023/06/08 06:34:24;;;;;;;15.50;5.95;;;;;;;19.44;47.58;101427.88;5060083;28;20045;-58
2023/06/08 06:36:51;;;;;;;15.32;5.78;;;;;;;19.68;46.76;101429.72;5066689;28;20049;-58
2023/06/08 06:39:19;;;;;;;9.27;5.25;;;;;;;19.84;46.35;101427.66;5064631;28;20163;-58
2023/06/08 06:41:45;;;;;;;10.23;5.55;;;;;;;19.98;46.50;101432.84;5064386;28;20102;-57
2023/06/08 06:44:12;;;;;;;10.23;5.43;;;;;;;20.15;46.03;101428.03;5069985;28;20063;-57
2023/06/08 06:46:39;;;;;;;10.27;5.63;;;;;;;20.24;44.83;101432.72;5061862;28;20067;-57
2023/06/08 06:49:06;;;;;;;16.15;5.05;;;;;;;20.43;43.84;101431.31;5063165;28;20050;-57
2023/06/08 06:51:33;;;;;;;14.32;5.20;;;;;;;20.64;43.19;101435.06;5060231;28;20053;-58
2023/06/08 06:54:00;;;;;;;8.00;4.72;;;;;;;20.81;40.76;101435.56;5066331;28;20550;-58
2023/06/08 06:56:26;;;;;;;15.00;5.20;;;;;;;20.86;40.01;101434.25;5068714;28;20135;-58
2023/06/08 06:58:53;;;;;;;12.02;5.40;;;;;;;20.78;40.01;101434.00;5068370;28;20135;-58
2023/06/08 07:01:20;;;;;;;7.72;4.57;;;;;;;20.77;39.87;101442.19;5066804;28;20131;-58
2023/06/08 07:03:47;;;;;;;8.77;5.75;;;;;;;20.86;41.37;101444.16;5064041;28;20076;-58
2023/06/08 07:06:14;;;;;;;8.73;5.20;;;;;;;21.07;41.93;101437.06;5067811;28;20045;-58
2023/06/08 07:08:41;;;;;;;18.13;8.05;;;;;;;21.31;41.67;101444.16;5063368;28;20174;-58
2023/06/08 07:11:09;;;;;;;8.52;4.97;;;;;;;21.49;41.45;101438.31;5066463;28;20471;-59
2023/06/08 07:13:35;;;;;;;9.07;5.32;;;;;;;21.68;40.73;101430.44;5073238;28;20107;-58
2023/06/08 07:16:03;;;;;;;10.10;5.07;;;;;;;21.85;40.77;101428.19;5063018;28;20082;-58
2023/06/08 07:18:30;;;;;;;21.10;5.53;;;;;;;21.92;40.28;101432.06;5077322;28;20056;-58
2023/06/08 07:20:57;;;;;;;9.32;5.28;;;;;;;22.10;40.04;101438.63;5066596;28;20044;-58
2023/06/08 07:23:24;;;;;;;8.02;4.60;;;;;;;22.36;40.01;101430.19;5063851;28;20056;-58
2023/06/08 07:26:11;;;;;;;8.63;4.68;;;;;;;22.39;38.85;101424.56;5065299;28;20060;-58
2023/06/08 07:28:59;;;;;;;10.38;5.05;;;;;;;22.34;38.81;101426.78;5066955;28;20051;-58
2023/06/08 07:31:26;;;;;;;11.52;5.10;;;;;;;22.23;38.03;101424.13;5060047;28;20145;-58
2023/06/08 07:33:55;;;;;;;11.25;5.82;;;;;;;22.21;38.01;101426.09;5057847;28;20056;-58
2023/06/08 07:36:22;;;;;;;10.45;5.15;;;;;;;22.49;37.50;101424.63;5065247;28;20052;-58
2023/06/08 07:38:50;;;;;;;11.02;5.65;;;;;;;22.73;37.06;101421.66;5063916;28;20061;-58
2023/06/08 07:41:20;;;;;;;13.73;4.68;;;;;;;22.92;36.18;101420.94;5063885;28;20752;-58
2023/06/08 07:43:46;;;;;;;11.73;4.22;;;;;;;23.00;36.10;101417.53;5065523;28;20044;-58
2023/06/08 07:46:13;;;;;;;9.73;4.47;;;;;;;23.04;35.71;101413.59;5064061;28;20659;-58
2023/06/08 07:48:40;;;;;;;9.25;4.57;;;;;;;23.22;34.90;101414.69;5064574;28;20450;-58
2023/06/08 07:51:06;;;;;;;10.45;4.68;;;;;;;23.32;33.44;101411.16;5063769;28;20045;-58
2023/06/08 07:53:37;;;;;;;7.40;4.38;;;;;;;23.51;33.63;101413.91;5063947;28;20048;-58
2023/06/08 07:56:04;;;;;;;12.93;4.65;;;;;;;23.49;33.55;101413.22;5059099;28;20072;-58
2023/06/08 07:58:31;;;;;;;12.75;4.95;;;;;;;23.62;32.71;101413.81;5063202;28;20045;-58
2023/06/08 08:00:59;;;;;;;11.23;4.50;;;;;;;23.71;33.47;101411.25;5064418;28;20053;-58
2023/06/08 08:03:27;;;;;;;9.60;4.85;;;;;;;23.87;33.22;101405.34;5064025;28;20058;-58
2023/06/08 08:05:55;;;;;;;13.88;4.47;;;;;;;23.86;33.38;101407.19;5062571;28;20051;-58
2023/06/08 08:08:21;;;;;;;12.40;4.32;;;;;;;23.99;33.34;101399.66;5062549;28;20053;-58
2023/06/08 08:10:48;;;;;;;10.43;4.60;;;;;;;23.97;33.38;101407.03;5064297;28;20179;-58
2023/06/08 08:13:15;;;;;;;7.38;3.53;;;;;;;23.95;33.25;101409.03;5063573;28;20052;-58
2023/06/08 08:15:42;;;;;;;13.73;4.50;;;;;;;24.06;33.70;101393.69;5062409;28;20045;-58
2023/06/08 08:18:09;;;;;;;12.77;4.68;;;;;;;24.12;32.03;101398.53;5064924;28;20115;-58
2023/06/08 08:20:35;;;;;;;10.35;4.47;;;;;;;24.27;32.24;101397.06;5061949;28;20100;-58
2023/06/08 08:23:02;;;;;;;15.90;4.90;;;;;;;24.39;32.52;101397.78;5064876;28;20048;-58
2023/06/08 08:25:29;;;;;;;7.25;4.10;;;;;;;24.53;32.54;101401.88;5063108;28;20045;-58
2023/06/08 08:27:56;;;;;;;13.20;4.13;;;;;;;24.62;32.41;101401.03;5063130;28;20207;-58
2023/06/08 08:30:22;;;;;;;12.85;4.22;;;;;;;24.52;32.67;101405.56;5063560;28;20139;-58
2023/06/08 08:32:49;;;;;;;10.93;4.03;;;;;;;24.51;32.53;101403.88;5059387;28;20054;-58
2023/06/08 08:35:16;;;;;;;7.63;4.60;;;;;;;24.59;30.52;101409.44;5062742;28;20091;-58
2023/06/08 08:37:43;;;;;;;5.95;3.63;;;;;;;24.81;31.08;101399.25;5064952;28;20087;-58
2023/06/08 08:40:11;;;;;;;12.02;4.90;;;;;;;24.93;32.28;101403.50;5065099;28;20092;-58
2023/06/08 08:42:43;;;;;;;6.97;3.90;;;;;;;25.05;32.11;101404.16;5078765;28;20040;-58
2023/06/08 08:45:13;;;;;;;12.85;4.90;;;;;;;25.19;32.13;101392.84;5059383;28;20147;-58
2023/06/08 08:47:41;;;;;;;16.67;4.82;;;;;;;25.26;32.02;101399.34;5063012;28;20423;-58
2023/06/08 08:50:16;;;;;;;7.93;4.18;;;;;;;25.18;31.54;101398.41;5063895;28;20086;-58
2023/06/08 08:52:48;;;;;;;11.98;4.35;;;;;;;25.26;31.64;101398.50;5063289;28;20349;-58
2023/06/08 08:55:16;;;;;;;10.55;4.80;;;;;;;25.42;31.69;101382.50;5061870;28;20079;-58
2023/06/08 08:58:01;;;;;;;9.35;4.93;;;;;;;25.42;30.93;101397.84;5066125;28;20465;-59
2023/06/08 09:00:31;;;;;;;12.73;4.53;;;;;;;25.45;31.18;101387.59;5057853;28;20055;-58
2023/06/08 09:02:58;;;;;;;10.05;4.60;;;;;;;25.49;29.98;101388.16;5057864;28;20045;-59
2023/06/08 09:05:25;;;;;;;8.27;4.60;;;;;;;25.59;30.94;101388.06;5071632;28;20052;-58
2023/06/08 09:07:55;;;;;;;11.90;4.85;;;;;;;25.85;30.69;101387.31;5072382;28;20135;-58
2023/06/08 09:10:25;;;;;;;10.85;4.45;;;;;;;25.99;30.64;101384.94;5070602;28;20174;-58
2023/06/08 09:12:54;;;;;;;7.97;4.03;;;;;;;26.10;29.35;101388.41;5071338;28;20059;-58
2023/06/08 09:15:31;;;;;;;7.53;3.67;;;;;;;26.32;29.88;101384.38;5071625;28;20040;-58
2023/06/08 09:18:13;;;;;;;7.80;4.15;;;;;;;26.36;28.06;101383.03;5071701;28;20052;-58
2023/06/08 09:20:40;;;;;;;20.65;3.65;;;;;;;26.45;28.35;101378.50;5067588;28;20105;-58
2023/06/08 09:23:20;;;;;;;6.22;3.85;;;;;;;26.68;28.82;101374.28;5068938;28;20135;-57
2023/06/08 09:25:47;;;;;;;10.03;4.43;;;;;;;26.62;28.61;101379.47;5052513;28;20389;-59
2023/06/08 09:28:22;;;;;;;8.52;4.35;;;;;;;26.70;27.81;101374.13;5070037;28;20287;-58
2023/06/08 09:30:49;;;;;;;9.25;3.97;;;;;;;26.84;27.97;101372.66;5071597;28;20080;-58
2023/06/08 09:33:26;;;;;;;26.75;4.10;;;;;;;26.55;27.21;101366.56;5071488;28;20130;-58
2023/06/08 09:35:58;;;;;;;14.27;3.65;;;;;;;26.55;27.63;101374.69;5070192;28;20051;-58
2023/06/08 09:38:29;;;;;;;8.52;3.40;;;;;;;26.73;27.87;101376.53;5071939;28;20239;-59
2023/06/08 09:41:14;;;;;;;6.85;3.97;;;;;;;27.10;28.11;101373.47;5070847;28;20048;-58
2023/06/08 09:43:46;;;;;;;7.97;3.97;;;;;;;26.95;27.00;101366.97;5070724;28;20053;-58
2023/06/08 09:46:31;;;;;;;11.60;4.60;;;;;;;27.34;27.79;101363.75;5069615;28;20050;-60
2023/06/08 09:48:58;;;;;;;8.88;3.72;;;;;;;27.10;27.00;101367.19;5070222;28;20052;-58
2023/06/08 09:51:25;;;;;;;12.57;3.67;;;;;;;26.66;27.66;101364.63;5071318;28;20095;-59
2023/06/08 09:53:55;;;;;;;8.50;3.95;;;;;;;27.01;27.71;101358.19;5071208;28;20117;-59
2023/06/08 09:56:24;;;;;;;12.60;3.80;;;;;;;27.03;28.01;101356.16;5070835;28;20059;-58
2023/06/08 09:58:56;;;;;;;9.35;3.80;;;;;;;27.25;27.59;101365.56;5058596;28;20135;-59
2023/06/08 10:01:35;;;;;;;12.45;4.47;;;;;;;27.14;27.47;101357.72;5069558;28;20056;-59
2023/06/08 10:04:23;;;;;;;7.10;3.28;;;;;;;26.78;27.60;101351.63;5070716;28;20127;-59
2023/06/08 10:07:19;;;;;;;7.82;4.05;;;;;;;26.99;27.54;101353.91;5057265;28;20036;-59
2023/06/08 10:09:49;;;;;;;9.32;3.47;;;;;;;27.32;27.67;101351.38;5075244;28;20048;-59
2023/06/08 10:12:15;;;;;;;12.17;4.73;;;;;;;27.71;27.22;101343.47;5071483;28;20110;-59
2023/06/08 10:14:42;;;;;;;13.88;4.30;;;;;;;27.67;26.99;101346.69;5074172;28;20464;-58
2023/06/08 10:17:10;;;;;;;6.53;3.88;;;;;;;27.38;26.76;101347.97;5086099;28;20048;-58
2023/06/08 10:19:37;;;;;;;8.20;3.90;;;;;;;27.26;27.24;101348.25;5081497;28;20080;-58
2023/06/08 10:22:04;;;;;;;9.10;3.45;;;;;;;27.51;27.17;101353.75;5064740;28;20127;-58
2023/06/08 10:24:32;;;;;;;6.20;3.53;;;;;;;27.69;25.81;101347.34;5071075;28;20710;-58
2023/06/08 10:27:10;;;;;;;12.82;3.90;;;;;;;27.86;25.86;101342.78;5074274;28;20079;-58
2023/06/08 10:29:36;;;;;;;7.63;3.70;;;;;;;27.82;26.42;101343.13;5058330;28;20090;-58
2023/06/08 10:32:10;;;;;;;14.82;4.07;;;;;;;28.06;26.74;101346.03;5072438;28;20047;-58
2023/06/08 10:34:40;;;;;;;7.13;3.88;;;;;;;27.90;26.47;101336.81;5074907;28;20048;-58
2023/06/08 10:37:26;;;;;;;8.57;3.72;;;;;;;27.88;26.58;101338.88;5091299;28;20376;-58
2023/06/08 10:39:53;;;;;;;8.23;4.13;;;;;;;27.65;27.28;101328.69;5078102;28;20242;-58
2023/06/08 10:42:20;;;;;;;7.65;4.32;;;;;;;27.80;26.83;101331.56;5064016;28;20128;-57
2023/06/08 10:44:55;;;;;;;7.80;3.70;;;;;;;28.61;26.04;101323.53;5082939;28;20490;-58
2023/06/08 10:47:22;;;;;;;9.35;4.35;;;;;;;29.08;25.22;101330.81;5071615;28;20139;-58
2023/06/08 10:50:01;;;;;;;9.50;3.88;;;;;;;28.84;24.50;101320.91;5077125;28;20044;-58
2023/06/08 10:52:38;;;;;;;9.45;4.63;;;;;;;29.13;24.89;101315.81;5078556;28;20092;-58
2023/06/08 10:55:11;;;;;;;10.07;4.63;;;;;;;29.91;23.73;101317.53;5087029;28;20778;-58
2023/06/08 10:57:45;;;;;;;9.13;4.63;;;;;;;30.51;23.33;101321.22;5070140;28;20175;-58
2023/06/08 11:00:22;;;;;;;7.40;4.07;;;;;;;31.88;21.55;101316.06;5074226;28;20098;-58
2023/06/08 11:02:49;;;;;;;7.97;4.10;;;;;;;32.31;21.40;101318.75;5086021;28;20062;-58
2023/06/08 11:05:16;;;;;;;12.45;3.83;;;;;;;31.47;21.87;101315.69;5081842;28;20338;-58
2023/06/08 11:07:44;;;;;;;12.27;3.92;;;;;;;30.43;23.39;101302.22;5072360;28;20087;-59
2023/06/08 11:10:11;;;;;;;6.18;3.70;;;;;;;30.25;23.62;101309.91;5056269;28;20061;-57
2023/06/08 11:12:37;;;;;;;13.82;4.38;;;;;;;29.97;23.82;101308.63;5076170;28;20052;-58
2023/06/08 11:15:05;;;;;;;7.95;4.05;;;;;;;31.42;21.20;101300.91;5085987;28;20253;-58
2023/06/08 11:17:58;;;;;;;10.00;4.13;;;;;;;33.14;20.00;101298.72;5074811;28;20079;-58
2023/06/08 11:20:29;;;;;;;7.43;3.58;;;;;;;32.03;20.63;101298.53;5066349;28;20423;-58
2023/06/08 11:22:56;;;;;;;8.32;4.00;;;;;;;31.85;21.04;101290.00;5078295;28;20040;-58
2023/06/08 11:25:24;;;;;;;6.03;4.00;;;;;;;30.71;22.36;101286.00;5088342;28;20050;-58
2023/06/08 11:27:55;;;;;;;8.30;4.38;;;;;;;31.36;21.82;101288.91;5078988;28;20377;-58
2023/06/08 11:30:31;;;;;;;9.23;4.20;;;;;;;31.32;21.61;101290.31;5072805;28;20491;-59